Terminal Aerodrome Forecast
Issued by NWS

Home | Current Version | Previous Version | Text Only | Print | Product List | Glossary On
Versions: 1 2 3 4 5 6 7 8 9 10 11 12 13
000
FTUS45 KABQ 212320
TAFAEG
TAF
KAEG 212320Z 2200/2224 13012KT P6SM VCTS BKN060CB BKN150
      TEMPO 2200/2202 VRB25G33KT
     FM220200 14012G20KT P6SM VCSH BKN070
     FM220600 17012KT P6SM BKN060
     FM221400 13012KT P6SM SCT060 SCT120
     FM221800 16015G22KT P6SM SCT070 SCT150
     FM222200 18020G30KT P6SM SCT080 SCT200=

USA.gov is the U.S. government's official web portal to all federal, state and local government web resources and services.